New York, NY (10013)

10:38 AM EDT on July 27, 2016 (GMT -0400)
JOEL TRIBECA | | Change Station

Elev 30 ft 40.72 °N, 74.01 °W | Updated 14 minutes ago

Clear
Clear
82.8 °F
Feels Like 84 °F
N
4.2
Wind Variable Wind from WNW

Today
High -- | Low -- °F
--% Chance of Precip.
Yesterday
High -- | Low -- °F
Precip. -- in
Pressure 29.96 in
Visibility 10.0 miles
Clouds Clear
Heat Index 84 °F
Dew Point 63 °F
Humidity 52%
Rainfall 0.00 in
Snow Depth Not available.
5:48 AM 8:16 PM
Last Quarter, 42% visible
METAR KJRB 271435Z 25004KT 10SM CLR 31/15 A2996 RMK AO1
Pressure 29.96 in
Visibility 10.0 miles
Clouds Clear
Heat Index 84 °F
Dew Point 63 °F
Humidity 52%
Rainfall 0.00 in
Snow Depth Not available.
5:48 AM 8:16 PM
Last Quarter, 42% visible
METAR KJRB 271435Z 25004KT 10SM CLR 31/15 A2996 RMK AO1

10-Day Weather Forecast

Almanac

Astronomy

Jul. 27, 2016 Rise Set
Actual Time
Civil Twilight
Nautical Twilight
Astronomical Twilight
Moon
Length of Visible Light
Length of Day
Tomorrow will be .
, % of the Moon is Illuminated

Today's Extremes

State Highs State Lows

Community

WunderPhotos

Upload Photos

1,927,847 photos uploaded!

WunderBlog® & News

Nearby

Air Quality

  Air Quality AQ Index Pollutant
Not available.

Snow Depth

Station Depth Elevation

Earthquake Activity

City Distance Mag. Time & Date
Minimum magnitude displayed is 2.5.

Coastal Water Temperatures

Place Temperature

Stations

Nearby Weather Stations

Station Location Temp. Windchill Dew Point Humidity Wind Precip. Elev Updated Type
                   

Watches & Warnings

There are currently no watches in effect.